createdAt,value
2022-07-30T00:00:24.853Z,23.49
2022-07-30T00:02:53.147Z,23.45
2022-07-30T00:05:20.858Z,23.46
2022-07-30T00:07:47.600Z,23.40
2022-07-30T00:10:14.458Z,23.39
2022-07-30T00:12:41.487Z,23.38
2022-07-30T00:15:09.117Z,23.41
2022-07-30T00:17:35.949Z,23.39
2022-07-30T00:20:03.308Z,23.32
2022-07-30T00:22:31.339Z,23.28
2022-07-30T00:24:58.584Z,23.27
2022-07-30T00:27:25.326Z,23.26
2022-07-30T00:29:51.991Z,23.23
2022-07-30T00:32:18.693Z,23.22
2022-07-30T00:34:46.062Z,23.16
2022-07-30T00:37:12.794Z,23.17
2022-07-30T00:39:39.490Z,23.14
2022-07-30T00:42:06.214Z,23.13
2022-07-30T00:44:32.896Z,23.13
2022-07-30T00:46:59.858Z,23.08
2022-07-30T00:49:27.003Z,23.08
2022-07-30T00:51:54.049Z,23.08
2022-07-30T00:54:21.479Z,23.08
2022-07-30T00:56:48.924Z,23.09
2022-07-30T00:59:16.336Z,23.09
2022-07-30T01:01:43.253Z,23.08
2022-07-30T01:04:13.928Z,23.07
2022-07-30T01:06:40.770Z,23.01
2022-07-30T01:09:08.331Z,23.01
2022-07-30T01:11:41.351Z,22.97
2022-07-30T01:14:09.492Z,22.92
2022-07-30T01:16:38.401Z,22.94
2022-07-30T01:19:28.391Z,22.94
2022-07-30T01:22:09.800Z,22.92
2022-07-30T01:24:40.980Z,22.90
2022-07-30T01:27:09.378Z,22.84
2022-07-30T01:29:37.918Z,22.80
2022-07-30T01:32:08.870Z,22.79
2022-07-30T01:34:39.169Z,22.77
2022-07-30T01:37:10.072Z,22.77
2022-07-30T01:39:38.500Z,22.75
2022-07-30T01:42:08.462Z,22.72
2022-07-30T01:44:37.579Z,22.74
2022-07-30T01:47:05.513Z,22.75
2022-07-30T01:49:35.582Z,22.73
2022-07-30T01:52:03.186Z,22.64
2022-07-30T01:54:31.874Z,22.55
2022-07-30T01:57:01.756Z,22.57
2022-07-30T01:59:31.820Z,22.58
2022-07-30T02:01:59.483Z,22.61
2022-07-30T02:04:27.336Z,22.62
2022-07-30T02:07:35.209Z,22.64
2022-07-30T02:10:05.887Z,22.59
2022-07-30T02:12:42.952Z,22.61
2022-07-30T02:15:31.352Z,22.60
2022-07-30T02:18:07.874Z,22.55
2022-07-30T02:20:35.605Z,22.50
2022-07-30T02:23:07.495Z,22.50
2022-07-30T02:25:38.557Z,22.50
2022-07-30T02:28:10.060Z,22.50
2022-07-30T02:30:40.431Z,22.49
2022-07-30T02:33:13.071Z,22.47
2022-07-30T02:35:41.202Z,22.45
2022-07-30T02:38:11.930Z,22.42
2022-07-30T02:40:41.950Z,22.38
2022-07-30T02:43:09.124Z,22.37
2022-07-30T02:45:38.035Z,22.35
2022-07-30T02:48:08.953Z,22.33
2022-07-30T02:50:39.502Z,22.31
2022-07-30T02:53:10.861Z,22.29
2022-07-30T02:55:39.826Z,22.28
2022-07-30T02:58:07.408Z,22.23
2022-07-30T03:00:35.561Z,22.19
2022-07-30T03:03:06.056Z,22.18
2022-07-30T03:05:33.573Z,22.16
2022-07-30T03:08:01.622Z,22.14
2022-07-30T03:10:29.180Z,22.12
2022-07-30T03:12:58.368Z,22.08
2022-07-30T03:15:26.833Z,22.08
2022-07-30T03:17:56.734Z,21.98
2022-07-30T03:20:26.615Z,21.78
2022-07-30T03:22:55.064Z,21.71
2022-07-30T03:25:27.328Z,21.75
2022-07-30T03:27:55.660Z,21.77
2022-07-30T03:30:23.917Z,21.78
2022-07-30T03:32:53.366Z,21.80
2022-07-30T03:35:22.070Z,21.82
2022-07-30T03:37:49.535Z,21.75
2022-07-30T03:40:17.896Z,21.69
2022-07-30T03:42:47.914Z,21.65
2022-07-30T03:45:19.121Z,21.62
2022-07-30T03:47:46.529Z,21.60
2022-07-30T03:50:14.193Z,21.58
2022-07-30T03:52:42.148Z,21.54
2022-07-30T03:55:13.683Z,21.55
2022-07-30T03:57:49.691Z,21.56
2022-07-30T04:00:18.206Z,21.59
2022-07-30T04:02:50.293Z,21.61
2022-07-30T04:05:17.194Z,21.59
2022-07-30T04:07:47.017Z,21.56
2022-07-30T04:10:16.869Z,21.56
2022-07-30T04:12:58.496Z,21.52
2022-07-30T04:16:36.999Z,21.52
2022-07-30T04:18:15.604Z,21.53
2022-07-30T04:20:46.087Z,21.53
2022-07-30T04:23:13.243Z,21.57
2022-07-30T04:25:43.671Z,21.63
2022-07-30T04:28:11.880Z,21.68
2022-07-30T04:30:38.821Z,21.75
2022-07-30T04:33:05.766Z,21.82
2022-07-30T04:35:51.408Z,21.84
2022-07-30T04:38:36.653Z,21.82
2022-07-30T04:41:03.589Z,21.84
2022-07-30T04:43:43.470Z,21.85
2022-07-30T04:46:10.242Z,21.87
2022-07-30T04:48:36.964Z,21.90
2022-07-30T04:51:26.487Z,21.90
2022-07-30T04:53:54.774Z,21.89
2022-07-30T04:56:23.828Z,21.87
2022-07-30T04:58:51.974Z,21.88
2022-07-30T05:01:24.164Z,21.89
2022-07-30T05:04:06.574Z,21.91
2022-07-30T05:06:35.039Z,21.96
2022-07-30T05:09:01.998Z,22.02
2022-07-30T05:11:29.018Z,22.08
2022-07-30T05:13:55.949Z,22.14
2022-07-30T05:16:25.129Z,22.18
2022-07-30T05:18:54.836Z,22.18
2022-07-30T05:21:21.501Z,22.19
2022-07-30T05:23:50.161Z,22.20
2022-07-30T05:26:38.367Z,22.22
2022-07-30T05:29:07.308Z,22.26
2022-07-30T05:31:48.498Z,22.29
2022-07-30T05:34:16.212Z,22.33
2022-07-30T05:36:45.478Z,22.37
2022-07-30T05:39:16.303Z,22.41
2022-07-30T05:41:52.091Z,22.45
2022-07-30T05:44:24.216Z,22.50
2022-07-30T05:46:52.356Z,22.54
2022-07-30T05:49:19.563Z,22.58
2022-07-30T05:51:46.455Z,22.60
2022-07-30T05:54:13.409Z,22.65
2022-07-30T05:56:58.702Z,22.70
2022-07-30T05:59:37.591Z,22.74
2022-07-30T06:02:14.793Z,22.77
2022-07-30T06:04:53.178Z,22.79
2022-07-30T06:07:20.879Z,22.86
2022-07-30T06:09:49.927Z,22.89
2022-07-30T06:12:17.277Z,22.94
2022-07-30T06:14:44.074Z,23.02
2022-07-30T06:17:15.819Z,23.12
2022-07-30T06:20:13.816Z,23.15
2022-07-30T06:22:52.228Z,23.14
2022-07-30T06:25:34.983Z,23.16
2022-07-30T06:28:21.330Z,23.26
2022-07-30T06:30:53.005Z,23.28
2022-07-30T06:33:22.263Z,23.33
2022-07-30T06:35:51.618Z,23.39
2022-07-30T06:38:21.705Z,23.48
2022-07-30T06:41:00.514Z,23.55
2022-07-30T06:43:55.284Z,23.60
2022-07-30T06:46:41.168Z,23.65
2022-07-30T06:49:11.495Z,23.71
2022-07-30T06:51:38.345Z,23.81
2022-07-30T06:54:05.071Z,23.91
2022-07-30T06:56:50.345Z,24.06
2022-07-30T06:59:17.057Z,24.11
2022-07-30T07:01:54.080Z,24.15
2022-07-30T07:04:21.550Z,24.22
2022-07-30T07:06:48.364Z,24.22
2022-07-30T07:09:23.596Z,24.33
2022-07-30T07:12:07.006Z,24.43
2022-07-30T07:14:36.106Z,24.48
2022-07-30T07:17:03.683Z,24.55
2022-07-30T07:20:00.807Z,24.58
2022-07-30T07:22:31.716Z,24.66
2022-07-30T07:24:58.435Z,24.76
2022-07-30T07:27:28.532Z,24.79
2022-07-30T07:30:01.552Z,24.85
2022-07-30T07:32:35.286Z,24.92
2022-07-30T07:35:02.880Z,25.03
2022-07-30T07:37:30.360Z,25.17
2022-07-30T07:40:01.701Z,25.25
2022-07-30T07:42:31.431Z,25.46
2022-07-30T07:44:58.964Z,25.81
2022-07-30T07:47:28.918Z,25.93
2022-07-30T07:50:07.297Z,25.95
2022-07-30T07:52:34.044Z,26.04
2022-07-30T07:55:00.875Z,26.20
2022-07-30T07:57:30.055Z,26.47
2022-07-30T08:00:00.433Z,26.82
2022-07-30T08:02:31.095Z,27.35
2022-07-30T08:05:05.264Z,27.94
2022-07-30T08:07:42.523Z,28.37
2022-07-30T08:10:29.553Z,28.39
2022-07-30T08:13:04.085Z,28.39
2022-07-30T08:15:49.848Z,28.42
2022-07-30T08:18:45.595Z,28.41
2022-07-30T08:21:19.314Z,28.54
2022-07-30T08:23:46.055Z,28.57
2022-07-30T08:26:12.856Z,30.30
2022-07-30T08:28:39.602Z,31.56
2022-07-30T08:31:07.503Z,34.95
2022-07-30T08:33:34.467Z,36.93
2022-07-30T08:36:04.397Z,38.90
2022-07-30T08:38:36.953Z,41.00
2022-07-30T08:41:03.846Z,42.57
2022-07-30T08:43:31.554Z,43.57
2022-07-30T08:45:59.057Z,44.52
2022-07-30T08:48:47.100Z,45.67
2022-07-30T08:51:17.727Z,44.57
2022-07-30T08:54:04.797Z,41.71
2022-07-30T08:56:32.646Z,42.98
2022-07-30T08:59:00.630Z,45.09
2022-07-30T09:01:27.750Z,46.77
2022-07-30T09:03:56.796Z,46.96
2022-07-30T09:06:25.642Z,44.87
2022-07-30T09:08:52.428Z,46.00
2022-07-30T09:11:19.244Z,47.49
2022-07-30T09:13:46.020Z,48.89
2022-07-30T09:16:24.096Z,49.56
2022-07-30T09:18:52.746Z,50.12
2022-07-30T09:21:26.383Z,50.84
2022-07-30T09:24:13.694Z,50.33
2022-07-30T09:27:05.240Z,50.93
2022-07-30T09:29:59.323Z,51.50
2022-07-30T09:32:53.488Z,50.08
2022-07-30T09:35:56.247Z,49.71
2022-07-30T09:38:44.844Z,50.14
2022-07-30T09:41:40.113Z,47.00
2022-07-30T09:44:23.887Z,44.13
2022-07-30T09:46:53.559Z,41.04
2022-07-30T09:49:28.687Z,42.67
2022-07-30T09:51:57.573Z,41.66
2022-07-30T09:54:51.530Z,40.82
2022-07-30T09:57:26.555Z,39.82
2022-07-30T10:00:24.060Z,38.12
2022-07-30T10:03:34.111Z,37.24
2022-07-30T10:06:33.437Z,39.46
2022-07-30T10:09:02.361Z,39.58
2022-07-30T10:11:41.001Z,43.58
2022-07-30T10:14:09.454Z,43.56
2022-07-30T10:16:36.305Z,41.50
2022-07-30T10:19:03.770Z,42.55
2022-07-30T10:21:57.354Z,44.38
2022-07-30T10:24:46.048Z,48.27
2022-07-30T10:27:32.256Z,49.31
2022-07-30T10:30:28.098Z,50.84
2022-07-30T10:32:58.261Z,47.73
2022-07-30T10:35:31.114Z,44.37
2022-07-30T10:38:09.357Z,44.38
2022-07-30T10:40:58.672Z,42.02
2022-07-30T10:43:55.156Z,40.82
2022-07-30T10:46:27.077Z,42.84
2022-07-30T10:48:55.602Z,47.30
2022-07-30T10:51:43.638Z,50.71
2022-07-30T10:54:39.784Z,52.67
2022-07-30T10:57:11.650Z,54.22
2022-07-30T10:59:58.667Z,51.15
2022-07-30T11:02:34.850Z,48.39
2022-07-30T11:05:18.616Z,49.84
2022-07-30T11:07:54.543Z,50.21
2022-07-30T11:10:36.409Z,48.43
2022-07-30T11:13:04.065Z,46.92
2022-07-30T11:15:55.779Z,44.15
2022-07-30T11:18:26.835Z,42.04
2022-07-30T11:21:16.657Z,42.15
2022-07-30T11:23:45.811Z,43.55
2022-07-30T11:26:43.762Z,47.53
2022-07-30T11:29:36.183Z,48.07
2022-07-30T11:32:28.235Z,45.16
2022-07-30T11:35:12.131Z,42.51
2022-07-30T11:38:04.976Z,42.76
2022-07-30T11:40:55.138Z,46.27
2022-07-30T11:43:35.167Z,48.88
2022-07-30T11:46:16.291Z,51.06
2022-07-30T11:49:08.355Z,51.20
2022-07-30T11:51:42.880Z,51.16
2022-07-30T11:54:12.829Z,51.19
2022-07-30T11:56:54.402Z,48.26
2022-07-30T11:59:21.183Z,45.84
2022-07-30T12:01:53.008Z,44.08
2022-07-30T12:04:20.130Z,42.45
2022-07-30T12:06:47.930Z,41.00
2022-07-30T12:09:28.718Z,39.89
2022-07-30T12:11:57.268Z,41.20
2022-07-30T12:14:24.428Z,40.94
2022-07-30T12:16:53.528Z,40.55
2022-07-30T12:19:20.449Z,40.08
2022-07-30T12:21:50.907Z,38.95
2022-07-30T12:24:25.307Z,37.65
2022-07-30T12:26:52.081Z,36.73
2022-07-30T12:29:18.952Z,36.57
2022-07-30T12:31:46.231Z,36.69
2022-07-30T12:34:23.946Z,36.56
2022-07-30T12:36:50.644Z,36.64
2022-07-30T12:39:22.848Z,36.42
2022-07-30T12:41:51.403Z,36.13
2022-07-30T12:44:37.732Z,35.93
2022-07-30T12:47:06.533Z,35.76
2022-07-30T12:49:37.817Z,35.49
2022-07-30T12:52:48.379Z,35.10
2022-07-30T12:55:15.238Z,35.01
2022-07-30T12:58:08.424Z,34.97
2022-07-30T13:00:45.047Z,35.04
2022-07-30T13:03:23.442Z,35.33
2022-07-30T13:05:55.158Z,35.29
2022-07-30T13:08:53.405Z,35.32
2022-07-30T13:11:23.108Z,35.15
2022-07-30T13:13:51.230Z,35.05
2022-07-30T13:16:19.365Z,35.00
2022-07-30T13:18:46.638Z,34.87
2022-07-30T13:21:13.868Z,34.76
2022-07-30T13:23:42.191Z,34.80
2022-07-30T13:26:09.891Z,34.96
2022-07-30T13:28:36.760Z,35.09
2022-07-30T13:31:04.031Z,35.22
2022-07-30T13:33:31.075Z,35.27
2022-07-30T13:35:57.816Z,35.21
2022-07-30T13:38:24.611Z,35.16
2022-07-30T13:40:53.114Z,35.05
2022-07-30T13:43:20.270Z,34.97
2022-07-30T13:45:47.396Z,35.12
2022-07-30T13:48:14.410Z,35.29
2022-07-30T13:50:41.826Z,35.27
2022-07-30T13:53:09.070Z,35.29
2022-07-30T13:55:37.347Z,35.52
2022-07-30T13:58:04.614Z,35.52
2022-07-30T14:00:34.242Z,35.39
2022-07-30T14:03:02.663Z,35.43
2022-07-30T14:05:29.617Z,35.39
2022-07-30T14:07:57.159Z,34.98
2022-07-30T14:10:24.244Z,34.66
2022-07-30T14:12:54.958Z,34.51
2022-07-30T14:15:22.681Z,34.44
2022-07-30T14:17:56.577Z,34.52
2022-07-30T14:20:24.092Z,34.53
2022-07-30T14:22:50.829Z,34.20
2022-07-30T14:25:17.647Z,34.11
2022-07-30T14:27:44.995Z,34.11
2022-07-30T14:30:14.924Z,34.17
2022-07-30T14:32:42.148Z,34.35
2022-07-30T14:35:10.528Z,34.69
2022-07-30T14:37:38.232Z,34.82
2022-07-30T14:40:06.641Z,34.97
2022-07-30T14:42:33.561Z,35.09
2022-07-30T14:45:00.305Z,35.31
2022-07-30T14:47:27.004Z,35.32
2022-07-30T14:49:54.287Z,34.97
2022-07-30T14:52:21.019Z,34.52
2022-07-30T14:54:47.643Z,34.32
2022-07-30T14:57:14.340Z,34.19
2022-07-30T14:59:40.931Z,34.13
2022-07-30T15:02:10.901Z,33.91
2022-07-30T15:04:37.691Z,33.71
2022-07-30T15:07:04.438Z,33.78
2022-07-30T15:09:34.128Z,33.47
2022-07-30T15:12:21.737Z,33.09
2022-07-30T15:14:49.866Z,32.96
2022-07-30T15:17:16.592Z,32.92
2022-07-30T15:19:50.090Z,33.13
2022-07-30T15:22:21.099Z,33.33
2022-07-30T15:24:48.860Z,33.36
2022-07-30T15:27:15.658Z,33.64
2022-07-30T15:29:42.787Z,33.60
2022-07-30T15:32:09.475Z,33.44
2022-07-30T15:34:36.157Z,33.56
2022-07-30T15:37:04.152Z,33.65
2022-07-30T15:39:33.434Z,33.50
2022-07-30T15:42:01.794Z,33.50
2022-07-30T15:44:29.156Z,33.53
2022-07-30T15:46:55.896Z,33.61
2022-07-30T15:49:22.835Z,33.82
2022-07-30T15:51:50.438Z,33.61
2022-07-30T15:54:22.461Z,33.34
2022-07-30T15:56:51.334Z,33.24
2022-07-30T15:59:18.456Z,33.29
2022-07-30T16:01:45.326Z,33.33
2022-07-30T16:04:19.637Z,33.21
2022-07-30T16:06:47.978Z,33.08
2022-07-30T16:09:16.051Z,32.93
2022-07-30T16:11:43.016Z,32.86
2022-07-30T16:14:10.395Z,33.08
2022-07-30T16:16:37.572Z,33.15
2022-07-30T16:19:04.412Z,33.19
2022-07-30T16:21:31.136Z,33.09
2022-07-30T16:23:57.810Z,32.92
2022-07-30T16:26:24.532Z,32.81
2022-07-30T16:28:51.504Z,32.82
2022-07-30T16:31:18.126Z,32.78
2022-07-30T16:33:45.105Z,32.63
2022-07-30T16:36:14.277Z,32.56
2022-07-30T16:38:41.296Z,32.48
2022-07-30T16:41:13.217Z,32.48
2022-07-30T16:43:40.742Z,32.43
2022-07-30T16:46:07.493Z,32.35
2022-07-30T16:48:34.227Z,32.33
2022-07-30T16:51:00.945Z,32.28
2022-07-30T16:53:28.431Z,32.15
2022-07-30T16:55:57.020Z,31.97
2022-07-30T16:58:30.739Z,31.89
2022-07-30T17:00:58.159Z,31.78
2022-07-30T17:03:25.504Z,31.71
2022-07-30T17:05:52.493Z,31.63
2022-07-30T17:08:19.475Z,31.52
2022-07-30T17:10:52.503Z,31.36
2022-07-30T17:13:19.471Z,31.28
2022-07-30T17:15:46.966Z,31.15
2022-07-30T17:18:14.015Z,31.01
2022-07-30T17:20:40.800Z,30.89
2022-07-30T17:23:07.797Z,30.85
2022-07-30T17:25:34.456Z,30.83
2022-07-30T17:28:01.804Z,30.84
2022-07-30T17:30:29.471Z,30.86
2022-07-30T17:32:56.453Z,30.84
2022-07-30T17:35:24.667Z,30.80
2022-07-30T17:37:51.705Z,30.70
2022-07-30T17:40:28.739Z,30.42
2022-07-30T17:43:03.584Z,30.26
2022-07-30T17:45:33.115Z,30.24
2022-07-30T17:48:01.631Z,30.31
2022-07-30T17:50:29.650Z,30.33
2022-07-30T17:52:56.484Z,30.33
2022-07-30T17:55:23.397Z,30.33
2022-07-30T17:57:50.039Z,30.29
2022-07-30T18:00:16.940Z,30.22
2022-07-30T18:02:43.615Z,30.14
2022-07-30T18:05:10.992Z,30.06
2022-07-30T18:07:37.690Z,29.97
2022-07-30T18:10:04.694Z,29.85
2022-07-30T18:12:31.467Z,29.74
2022-07-30T18:14:59.119Z,29.68
2022-07-30T18:17:26.270Z,29.60
2022-07-30T18:19:53.473Z,29.53
2022-07-30T18:22:29.567Z,29.50
2022-07-30T18:24:57.358Z,29.48
2022-07-30T18:27:24.067Z,29.46
2022-07-30T18:29:50.748Z,29.42
2022-07-30T18:32:17.538Z,29.34
2022-07-30T18:34:44.260Z,29.32
2022-07-30T18:37:10.979Z,29.30
2022-07-30T18:39:38.947Z,29.28
2022-07-30T18:42:06.440Z,29.24
2022-07-30T18:44:33.580Z,29.19
2022-07-30T18:47:00.534Z,29.12
2022-07-30T18:49:36.728Z,29.10
2022-07-30T18:52:05.604Z,29.04
2022-07-30T18:54:32.545Z,28.95
2022-07-30T18:56:59.231Z,28.88
2022-07-30T18:59:25.885Z,28.85
2022-07-30T19:01:52.585Z,28.78
2022-07-30T19:04:19.440Z,28.71
2022-07-30T19:06:46.465Z,28.65
2022-07-30T19:09:17.689Z,28.60
2022-07-30T19:11:47.910Z,28.54
2022-07-30T19:14:14.884Z,28.48
2022-07-30T19:16:42.912Z,28.44
2022-07-30T19:19:10.361Z,28.41
2022-07-30T19:21:37.072Z,28.34
2022-07-30T19:24:04.919Z,28.25
2022-07-30T19:26:31.710Z,28.21
2022-07-30T19:28:58.676Z,28.17
2022-07-30T19:31:26.563Z,28.13
2022-07-30T19:33:53.338Z,28.10
2022-07-30T19:36:22.791Z,28.08
2022-07-30T19:38:50.140Z,28.04
2022-07-30T19:41:16.999Z,28.02
2022-07-30T19:43:57.828Z,28.01
2022-07-30T19:46:25.167Z,27.99
2022-07-30T19:48:52.034Z,27.99
2022-07-30T19:51:20.444Z,27.97
2022-07-30T19:53:48.038Z,27.94
2022-07-30T19:56:14.907Z,27.91
2022-07-30T19:58:41.854Z,27.88
2022-07-30T20:01:14.399Z,27.84
2022-07-30T20:03:41.884Z,27.81
2022-07-30T20:06:15.377Z,27.76
2022-07-30T20:08:44.800Z,27.68
2022-07-30T20:11:20.924Z,27.59
2022-07-30T20:13:59.162Z,27.49
2022-07-30T20:16:26.071Z,27.45
2022-07-30T20:18:54.549Z,27.40
2022-07-30T20:21:21.254Z,27.32
2022-07-30T20:24:08.162Z,27.24
2022-07-30T20:26:35.763Z,27.18
2022-07-30T20:29:02.661Z,27.15
2022-07-30T20:31:36.247Z,27.08
2022-07-30T20:34:04.826Z,27.03
2022-07-30T20:36:43.365Z,26.93
2022-07-30T20:39:13.371Z,26.87
2022-07-30T20:41:45.748Z,26.84
2022-07-30T20:44:23.506Z,26.80
2022-07-30T20:46:52.699Z,26.78
2022-07-30T20:49:24.184Z,26.73
2022-07-30T20:52:00.844Z,26.69
2022-07-30T20:54:28.128Z,26.64
2022-07-30T20:56:56.932Z,26.59
2022-07-30T20:59:27.056Z,26.57
2022-07-30T21:01:55.835Z,26.52
2022-07-30T21:04:25.311Z,26.49
2022-07-30T21:09:49.684Z,26.45
2022-07-30T21:12:19.314Z,26.41
2022-07-30T21:14:59.817Z,26.38
2022-07-30T21:17:26.632Z,26.37
2022-07-30T21:19:55.127Z,26.34
2022-07-30T21:22:22.408Z,26.33
2022-07-30T21:24:50.759Z,26.29
2022-07-30T21:27:19.098Z,26.31
2022-07-30T21:29:45.943Z,26.36
2022-07-30T21:32:13.314Z,26.41
2022-07-30T21:34:42.370Z,26.45
2022-07-30T21:37:09.825Z,26.50
2022-07-30T21:39:39.952Z,26.52
2022-07-30T21:42:10.541Z,26.54
2022-07-30T21:44:38.184Z,26.53
2022-07-30T21:47:10.468Z,26.52
2022-07-30T21:49:39.570Z,26.52
2022-07-30T21:52:08.926Z,26.51
2022-07-30T21:54:48.414Z,26.50
2022-07-30T22:00:14.560Z,26.44
2022-07-30T22:02:53.043Z,26.42
2022-07-30T22:05:23.264Z,26.29
2022-07-30T22:08:07.611Z,26.24
2022-07-30T22:10:37.958Z,26.33
2022-07-30T22:13:08.912Z,26.38
2022-07-30T22:15:36.439Z,26.42
2022-07-30T22:18:04.158Z,26.43
2022-07-30T22:20:31.755Z,26.46
2022-07-30T22:23:00.508Z,26.50
2022-07-30T22:25:39.807Z,26.52
2022-07-30T22:28:12.947Z,26.53
2022-07-30T22:30:41.208Z,26.52
2022-07-30T22:33:19.249Z,26.52
2022-07-30T22:35:49.679Z,26.52
2022-07-30T22:38:19.575Z,26.52
2022-07-30T22:40:46.552Z,26.48
2022-07-30T22:43:15.983Z,26.46
2022-07-30T22:45:47.637Z,26.44
2022-07-30T22:48:16.792Z,26.43
2022-07-30T22:50:43.539Z,26.43
2022-07-30T22:55:58.664Z,26.41
2022-07-30T22:58:26.431Z,26.40
2022-07-30T23:00:53.548Z,26.39
2022-07-30T23:03:21.135Z,26.38
2022-07-30T23:05:55.090Z,26.36
2022-07-30T23:11:10.108Z,26.29
2022-07-30T23:12:30.688Z,26.43
2022-07-30T23:12:30.999Z,26.34
2022-07-30T23:12:32.448Z,26.46
2022-07-30T23:12:33.009Z,26.45
2022-07-30T23:13:38.643Z,26.27
2022-07-30T23:16:06.839Z,26.23
2022-07-30T23:18:35.285Z,26.15
2022-07-30T23:21:03.156Z,26.04
2022-07-30T23:23:33.900Z,26.00
2022-07-30T23:26:01.975Z,25.98
2022-07-30T23:28:28.739Z,25.93
2022-07-30T23:30:55.837Z,25.85
2022-07-30T23:33:22.543Z,25.78
2022-07-30T23:35:49.329Z,25.72
2022-07-30T23:38:16.065Z,25.71
2022-07-30T23:40:42.708Z,25.75
2022-07-30T23:43:09.521Z,25.77
2022-07-30T23:45:36.193Z,25.82
2022-07-30T23:48:03.563Z,25.82
2022-07-30T23:50:34.318Z,25.85
2022-07-30T23:53:01.992Z,25.85
2022-07-30T23:55:30.971Z,25.90
2022-07-30T23:57:58.711Z,25.91
